• Join FlightAware (Why Join?)
  • Login
  • US Flag 
11:12AM EDT


 

Airport Tracker/Info


-or-


 

Live Flight TrackerFlight Track Log ✈ N534QS ✈ 12.05.2013 ✈ EGGW / LTN - KBED

Flight Track Log - Related Links

Times and Time Zones

All times are in EDT time to prevent confusion due to time zone crossing. See the N534QS flight status page for this flight to view local times or setup timezone preferences in your user account.

Time Position Orientation Groundspeed Altitude Reporting Facility
EDT Latitude Longitude Course Direction KTS MPH feet Rate Location/Type
12:20PM 53.9885 -18.8473 288° West  Level Estimated
12:21PM 53.9953 -19.0557 273° West  Level Estimated
12:22PM 54.0017 -19.2642 273° West  Level Estimated
12:23PM 54.0078 -19.4727 273° West  Level Estimated
12:24PM 54.0135 -19.6813 273° West  Level Estimated
12:25PM 54.0188 -19.8899 273° West  Level Estimated
12:26PM 54.0238 -20.0986 272° West  Level Estimated
12:27PM 54.0285 -20.3074 272° West  Level Estimated
12:28PM 54.0327 -20.5149 272° West  Level Estimated
12:29PM 54.0366 -20.7225 272° West  Level Estimated
12:30PM 54.0401 -20.9302 272° West  Level Estimated
12:31PM 54.0433 -21.1378 272° West  Level Estimated
12:32PM 54.0461 -21.3455 271° West  Level Estimated
12:33PM 54.0485 -21.5533 271° West  Level Estimated
12:34PM 54.0506 -21.7610 271° West  Level Estimated
12:35PM 54.0523 -21.9688 271° West  Level Estimated
12:35PM 50.0000 -20.0000 274° West 444 511 43,000  Level ETMS Enhanced Traffic Management System
12:36PM 54.0537 -22.1766 271° West  Level Estimated
12:37PM 54.0547 -22.3844 271° West  Level Estimated
12:38PM 54.0554 -22.5922 270° West  Level Estimated
12:39PM 54.0557 -22.8000 270° West  Level Estimated
12:40PM 54.0556 -23.0078 270° West  Level Estimated
12:41PM 50.0615 -21.7280 273° West 444 511 43,000  Level FlightAware Transoceanic
12:42PM 50.0668 -21.9202 272° West 444 511 43,000  Level FlightAware Transoceanic
12:43PM 50.0717 -22.1125 272° West 444 511 43,000  Level FlightAware Transoceanic
12:44PM 50.0763 -22.3048 272° West 444 511 43,000  Level FlightAware Transoceanic
12:45PM 50.0806 -22.4972 272° West 444 511 43,000  Level FlightAware Transoceanic
12:46PM 50.0846 -22.6896 272° West 444 511 43,000  Level FlightAware Transoceanic
12:47PM 50.0883 -22.8820 272° West 444 511 43,000  Level FlightAware Transoceanic
12:48PM 50.0916 -23.0745 271° West 444 511 43,000  Level FlightAware Transoceanic
12:49PM 50.0946 -23.2670 271° West 444 511 43,000  Level FlightAware Transoceanic
12:50PM 50.0973 -23.4595 271° West 444 511 43,000  Level FlightAware Transoceanic
12:51PM 50.0997 -23.6520 271° West 444 511 43,000  Level FlightAware Transoceanic
12:52PM 50.1018 -23.8445 271° West 444 511 43,000  Level FlightAware Transoceanic
12:53PM 50.1035 -24.0371 271° West 444 511 43,000  Level FlightAware Transoceanic
12:54PM 50.1050 -24.2297 271° West 444 511 43,000  Level FlightAware Transoceanic
12:55PM 50.1061 -24.4222 270° West 444 511 43,000  Level FlightAware Transoceanic
12:56PM 50.1069 -24.6148 270° West 444 511 43,000  Level FlightAware Transoceanic
12:57PM 50.1074 -24.8074 270° West 444 511 43,000  Level FlightAware Transoceanic
12:58PM 50.1075 -25.0000 270° West 444 511 43,000  Level FlightAware Transoceanic
12:59PM 50.1074 -25.1926 270° West 444 511 43,000  Level FlightAware Transoceanic
01:00PM 50.1069 -25.3852 270° West 444 511 43,000  Level FlightAware Transoceanic
01:01PM 50.1061 -25.5778 270° West 444 511 43,000  Level FlightAware Transoceanic
01:02PM 50.1050 -25.7703 269° West 444 511 43,000  Level FlightAware Transoceanic
01:03PM 50.1035 -25.9629 269° West 444 511 43,000  Level FlightAware Transoceanic
01:04PM 50.1018 -26.1555 269° West 444 511 43,000  Level FlightAware Transoceanic
01:05PM 50.0997 -26.3480 269° West 444 511 43,000  Level FlightAware Transoceanic
01:06PM 50.0973 -26.5405 269° West 444 511 43,000  Level FlightAware Transoceanic
01:07PM 50.0946 -26.7330 269° West 444 511 43,000  Level FlightAware Transoceanic
01:08PM 50.0916 -26.9255 269° West 444 511 43,000  Level FlightAware Transoceanic
01:09PM 50.0883 -27.1180 268° West 444 511 43,000  Level FlightAware Transoceanic
01:10PM 50.0846 -27.3104 268° West 444 511 43,000  Level FlightAware Transoceanic
01:11PM 50.0806 -27.5028 268° West 444 511 43,000  Level FlightAware Transoceanic
01:12PM 50.0763 -27.6952 268° West 444 511 43,000  Level FlightAware Transoceanic
01:13PM 50.0717 -27.8875 268° West 444 511 43,000  Level FlightAware Transoceanic
01:14PM 50.0668 -28.0798 268° West 444 511 43,000  Level FlightAware Transoceanic
01:15PM 50.0615 -28.2720 267° West 444 511 43,000  Level FlightAware Transoceanic
01:16PM 50.0560 -28.4642 267° West 444 511 43,000  Level FlightAware Transoceanic
01:17PM 50.0501 -28.6564 267° West 444 511 43,000  Level FlightAware Transoceanic
01:18PM 50.0439 -28.8485 267° West 444 511 43,000  Level FlightAware Transoceanic
01:19PM 50.0373 -29.0406 267° West 444 511 43,000  Level FlightAware Transoceanic
01:20PM 50.0305 -29.2326 267° West 444 511 43,000  Level FlightAware Transoceanic
01:21PM 50.0234 -29.4245 267° West 444 511 43,000  Level FlightAware Transoceanic
01:22PM 50.0159 -29.6164 266° West 444 511 43,000  Level FlightAware Transoceanic
01:23PM 50.0081 -29.8082 266° West 444 511 43,000  Level FlightAware Transoceanic
01:24PM 50.0001 -29.9976 266° West  Level FlightAware Approximate
01:25PM 49.9920 -30.1870 266° West  Level FlightAware Approximate
01:26PM 49.9728 -30.1801 257° West  Level FlightAware Approximate
01:27PM 49.9447 -30.3646 257° West  Level FlightAware Approximate
01:28PM 49.9162 -30.5488 257° West  Level FlightAware Approximate
01:29PM 49.8875 -30.7329 256° West  Level FlightAware Approximate
01:30PM 49.8585 -30.9167 256° West  Level FlightAware Approximate
01:30PM 50.0000 -30.0000 257° West 456 525 43,000  Level ETMS Enhanced Traffic Management System
01:31PM 49.8292 -31.1004 256° West  Level FlightAware Approximate
01:32PM 49.7995 -31.2838 256° West  Level FlightAware Approximate
01:33PM 49.7696 -31.4669 256° West  Level FlightAware Approximate
01:34PM 49.7395 -31.6499 256° West  Level FlightAware Approximate
01:35PM 49.7090 -31.8326 256° West  Level FlightAware Approximate
01:36PM 49.5986 -32.4791 255° West 456 525 43,000  Level FlightAware Transoceanic
01:37PM 49.5655 -32.6681 255° West 456 525 43,000  Level FlightAware Transoceanic
01:38PM 49.5321 -32.8568 255° West 456 525 43,000  Level FlightAware Transoceanic
01:39PM 49.4985 -33.0452 255° West 456 525 43,000  Level FlightAware Transoceanic
01:40PM 49.4645 -33.2334 254° West 456 525 43,000  Level FlightAware Transoceanic
01:41PM 49.4302 -33.4214 254° West 456 525 43,000  Level FlightAware Transoceanic
01:42PM 49.3956 -33.6090 254° West 456 525 43,000  Level FlightAware Transoceanic
01:43PM 49.3607 -33.7964 254° West 456 525 43,000  Level FlightAware Transoceanic
01:44PM 49.3255 -33.9836 254° West 456 525 43,000  Level FlightAware Transoceanic
01:45PM 49.2901 -34.1704 254° West 456 525 43,000  Level FlightAware Transoceanic
01:46PM 49.2542 -34.3570 254° West 456 525 43,000  Level FlightAware Transoceanic
01:47PM 49.2182 -34.5433 253° West 456 525 43,000  Level FlightAware Transoceanic
01:48PM 49.1818 -34.7294 253° West 456 525 43,000  Level FlightAware Transoceanic
01:49PM 49.1451 -34.9152 253° West 456 525 43,000  Level FlightAware Transoceanic
01:50PM 49.1081 -35.1007 253° West 456 525 43,000  Level FlightAware Transoceanic
01:51PM 49.0708 -35.2859 253° West 456 525 43,000  Level FlightAware Transoceanic
01:52PM 49.0332 -35.4708 253° West 456 525 43,000  Level FlightAware Transoceanic
01:53PM 48.9953 -35.6555 253° West 456 525 43,000  Level FlightAware Transoceanic
01:54PM 48.9572 -35.8399 252° West 456 525 43,000  Level FlightAware Transoceanic
01:55PM 48.9187 -36.0240 252° West 456 525 43,000  Level FlightAware Transoceanic
01:56PM 48.8800 -36.2078 252° West 456 525 43,000  Level FlightAware Transoceanic
01:57PM 48.8409 -36.3913 252° West 456 525 43,000  Level FlightAware Transoceanic
01:58PM 48.8016 -36.5745 252° West 456 525 43,000  Level FlightAware Transoceanic
01:59PM 48.7619 -36.7575 252° West 456 525 43,000  Level FlightAware Transoceanic
02:00PM 48.7220 -36.9402 252° West 456 525 43,000  Level FlightAware Transoceanic
02:01PM 48.6818 -37.1225 251° West 456 525 43,000  Level FlightAware Transoceanic
02:02PM 48.6413 -37.3046 251° West 456 525 43,000  Level FlightAware Transoceanic
02:03PM 48.6005 -37.4864 251° West 456 525 43,000  Level FlightAware Transoceanic
02:04PM 48.5595 -37.6679 251° West 456 525 43,000  Level FlightAware Transoceanic
02:05PM 48.5181 -37.8491 251° West 456 525 43,000  Level FlightAware Transoceanic
02:06PM 48.4765 -38.0300 251° West 456 525 43,000  Level FlightAware Transoceanic
02:07PM 48.4346 -38.2106 251° West 456 525 43,000  Level FlightAware Transoceanic
02:08PM 48.3923 -38.3909 251° West 456 525 43,000  Level FlightAware Transoceanic
02:09PM 48.3499 -38.5709 250° West 456 525 43,000  Level FlightAware Transoceanic
02:10PM 48.3071 -38.7506 250° West 456 525 43,000  Level FlightAware Transoceanic
02:11PM 48.2641 -38.9300 250° West 456 525 43,000  Level FlightAware Transoceanic
02:12PM 48.2207 -39.1091 250° West 456 525 43,000  Level FlightAware Transoceanic
02:13PM 48.1772 -39.2879 250° West 456 525 43,000  Level FlightAware Transoceanic
02:14PM 48.1333 -39.4664 250° West 456 525 43,000  Level FlightAware Transoceanic
02:15PM 48.0891 -39.6446 250° West 456 525 43,000  Level FlightAware Transoceanic
02:16PM 48.0447 -39.8224 249° West 456 525 43,000  Level FlightAware Transoceanic
02:17PM 48.0017 -39.9931 249° West  Level FlightAware Approximate
02:18PM 47.9584 -40.1635 249° West  Level FlightAware Approximate
02:19PM 47.9903 -40.1670 265° West  Level FlightAware Approximate
02:20PM 47.9796 -40.3485 265° West  Level FlightAware Approximate
02:20PM 48.0000 -40.0000 265° West 463 533 43,000  Level ETMS Enhanced Traffic Management System
02:21PM 47.9685 -40.5300 265° West  Level FlightAware Approximate
02:22PM 47.9571 -40.7114 265° West  Level FlightAware Approximate
02:23PM 47.9455 -40.8927 265° West  Level FlightAware Approximate
02:24PM 47.9336 -41.0739 264° West  Level FlightAware Approximate
02:25PM 47.9214 -41.2550 264° West  Level FlightAware Approximate
02:26PM 47.8784 -41.9136 264° West 463 533 43,000  Level FlightAware Transoceanic
02:27PM 47.8645 -42.1044 264° West 463 533 43,000  Level FlightAware Transoceanic
02:28PM 47.8503 -42.2951 264° West 463 533 43,000  Level FlightAware Transoceanic
02:29PM 47.8357 -42.4857 263° West 463 533 43,000  Level FlightAware Transoceanic
02:30PM 47.8209 -42.6763 263° West 463 533 43,000  Level FlightAware Transoceanic
02:31PM 47.8057 -42.8667 263° West 463 533 43,000  Level FlightAware Transoceanic
02:32PM 47.7902 -43.0570 263° West 463 533 43,000  Level FlightAware Transoceanic
02:33PM 47.7744 -43.2471 263° West 463 533 43,000  Level FlightAware Transoceanic
02:34PM 47.7583 -43.4372 263° West 463 533 43,000  Level FlightAware Transoceanic
02:35PM 47.7419 -43.6272 263° West 463 533 43,000  Level FlightAware Transoceanic
02:36PM 47.7252 -43.8170 262° West 463 533 43,000  Level FlightAware Transoceanic
02:37PM 47.7081 -44.0067 262° West 463 533 43,000  Level FlightAware Transoceanic
02:38PM 47.6908 -44.1963 262° West 463 533 43,000  Level FlightAware Transoceanic
02:39PM 47.6731 -44.3857 262° West 463 533 43,000  Level FlightAware Transoceanic
02:40PM 47.6551 -44.5750 262° West 463 533 43,000  Level FlightAware Transoceanic
02:41PM 47.6368 -44.7642 262° West 463 533 43,000  Level FlightAware Transoceanic
02:42PM 47.6182 -44.9533 262° West 463 533 43,000  Level FlightAware Transoceanic
02:43PM 47.5993 -45.1422 261° West 463 533 43,000  Level FlightAware Transoceanic
02:44PM 47.5801 -45.3310 261° West 463 533 43,000  Level FlightAware Transoceanic
02:45PM 47.5605 -45.5196 261° West 463 533 43,000  Level FlightAware Transoceanic
02:46PM 47.5407 -45.7081 261° West 463 533 43,000  Level FlightAware Transoceanic
02:47PM 47.5205 -45.8965 261° West 463 533 43,000  Level FlightAware Transoceanic
02:48PM 47.5000 -46.0847 261° West 463 533 43,000  Level FlightAware Transoceanic
02:49PM 47.4793 -46.2727 261° West 463 533 43,000  Level FlightAware Transoceanic
02:50PM 47.4582 -46.4606 261° West 463 533 43,000  Level FlightAware Transoceanic
02:51PM 47.4368 -46.6484 260° West 463 533 43,000  Level FlightAware Transoceanic
02:52PM 47.4151 -46.8360 260° West 463 533 43,000  Level FlightAware Transoceanic
02:53PM 47.3931 -47.0235 260° West 463 533 43,000  Level FlightAware Transoceanic
02:54PM 47.3708 -47.2108 260° West 463 533 43,000  Level FlightAware Transoceanic
02:55PM 47.3482 -47.3979 260° West 463 533 43,000  Level FlightAware Transoceanic
02:56PM 47.3253 -47.5849 260° West 463 533 43,000  Level FlightAware Transoceanic
02:57PM 47.3021 -47.7717 260° West 463 533 43,000  Level FlightAware Transoceanic
02:58PM 47.2786 -47.9583 259° West 463 533 43,000  Level FlightAware Transoceanic
02:59PM 47.2547 -48.1448 259° West 463 533 43,000  Level FlightAware Transoceanic
03:00PM 47.2306 -48.3311 259° West 463 533 43,000  Level FlightAware Transoceanic
03:01PM 47.2062 -48.5173 259° West 463 533 43,000  Level FlightAware Transoceanic
03:02PM 47.1815 -48.7032 259° West 463 533 43,000  Level FlightAware Transoceanic
03:03PM 47.1564 -48.8890 259° West 463 533 43,000  Level FlightAware Transoceanic
03:04PM 47.1311 -49.0746 259° West 463 533 43,000  Level FlightAware Transoceanic
03:05PM 47.1055 -49.2601 258° West 463 533 43,000  Level FlightAware Transoceanic
03:06PM 47.0796 -49.4453 258° West 463 533 43,000  Level FlightAware Transoceanic
03:07PM 47.0533 -49.6304 258° West 463 533 43,000  Level FlightAware Transoceanic
03:08PM 47.0268 -49.8153 258° West 463 533 43,000 480 Level FlightAware Transoceanic
03:09PM 47.0014 -49.9903 258° West  Level FlightAware Approximate
03:10PM 46.9757 -50.1651 258° West  Level FlightAware Approximate
03:10PM 47.0000 -50.0000 259° West 416 479 45,000  Level ETMS Enhanced Traffic Management System
03:11PM 46.9849 -50.1574 262° West  Level FlightAware Approximate
03:12PM 46.9609 -50.3318 259° West  Level FlightAware Approximate
03:12PM 46.9333 -50.3500 260° West 470 541 45,000  Level Gander Center
03:13PM 46.9368 -50.5059 259° West  Level FlightAware Approximate
03:13PM 46.9000 -50.5333 255° West 470 541 45,000  Level Gander Center
03:14PM 46.9123 -50.6800 258° West  Level FlightAware Approximate
03:14PM 46.8833 -50.7000 262° West 460 529 45,000  Level Gander Center
03:15PM 46.8876 -50.8538 258° West  Level FlightAware Approximate
03:15PM 46.8500 -50.8833 255° West 460 529 45,000  Level Gander Center
03:15PM 46.8500 -51.0167 270° West 460 529 45,000  Level Moncton Center
03:16PM 46.8795 -50.9071 259° West  Level FlightAware Approximate
03:16PM 46.8333 -51.2000 262° West 470 541 45,000  Level Moncton Center
03:17PM 46.8564 -51.0813 260° West  Level FlightAware Approximate
03:17PM 46.8167 -51.2833 254° West 460 529 45,000  Level Gander Center
03:18PM 46.8000 -51.4667 263° West 460 529 45,000  Level Gander Center
03:18PM 46.7667 -51.5833 247° West 460 529 45,000  Level Moncton Center
03:19PM 46.7667 -51.6333 270° West 460 529 45,000  Level Gander Center
03:20PM 46.7333 -51.8167 255° West 460 529 45,000  Level Gander Center
03:20PM 46.7333 -51.9333 270° West 460 529 45,000  Level Moncton Center
03:21PM 46.7000 -52.1167 255° West 460 529 45,000  Level Moncton Center
03:22PM 46.6833 -52.3000 263° West 460 529 45,000  Level Moncton Center
03:23PM 46.6500 -52.4667 254° West 460 529 45,000  Level Moncton Center
03:24PM 46.6167 -52.6500 255° West 460 529 45,000  Level Moncton Center
03:25PM 46.6000 -52.8167 262° West 460 529 45,000  Level Moncton Center
03:26PM 46.6000 -52.9167 270° West 460 529 45,000  Level Gander Center
03:27PM 46.5667 -53.0833 254° West 450 518 45,000  Level Gander Center
03:27PM 46.5500 -53.1833 256° West 450 518 45,000  Level Moncton Center
03:28PM 46.5167 -53.3833 256° West 450 518 45,000  Level Moncton Center
03:29PM 46.5167 -53.4333 270° West 450 518 45,000  Level Gander Center
03:30PM 46.4833 -53.6333 256° West 450 518 45,000  Level Gander Center
03:30PM 46.4667 -53.7333 256° West 450 518 45,000  Level Moncton Center
03:31PM 46.4333 -53.9167 255° West 460 529 45,000  Level Moncton Center
03:32PM 46.4000 -54.0833 254° West 460 529 45,000  Level Moncton Center
03:33PM 46.3833 -54.2667 263° West 450 518 45,000  Level Moncton Center
03:34PM 46.3500 -54.4333 254° West 450 518 45,000  Level Moncton Center
03:35PM 46.3167 -54.6333 257° West 460 529 45,000  Level Moncton Center
03:36PM 46.3000 -54.7833 261° West 460 529 45,000  Level Moncton Center
03:37PM 46.2667 -54.9833 257° West 450 518 45,000  Level Moncton Center
03:38PM 46.2500 -55.1667 263° West 450 518 45,000  Level Moncton Center
03:39PM 46.2167 -55.3167 252° West 450 518 45,000  Level Moncton Center
03:40PM 46.1833 -55.5167 257° West 450 518 45,000  Level Moncton Center
03:41PM 46.1500 -55.6833 254° West 440 506 45,000  Level Moncton Center
03:42PM 46.1167 -55.8667 255° West 440 506 45,000  Level Moncton Center
03:43PM 46.1167 -55.9167 270° West 450 518 45,000  Level Gander Center
03:44PM 46.0833 -56.1000 255° West 450 518 45,000 -240 Level Gander Center
03:44PM 46.0667 -56.1833 254° West 470 541 44,700 -540 Descending Moncton Center
03:45PM 46.0333 -56.3833 257° West 450 518 44,200 -540 Descending Moncton Center
03:46PM 46.0167 -56.4500 250° West 440 506 44,000 -540 Descending Gander Center
03:47PM 46.0000 -56.6000 261° West 430 495 43,500 -540 Descending Gander Center
03:48PM 45.9667 -56.8000 257° West 450 518 43,000 -360 Descending Gander Center
03:48PM 45.9500 -56.9000 257° West 450 518 43,000  Level Moncton Center
03:49PM 45.9000 -57.0500 244° Southwest 450 518 43,000  Level Moncton Center
03:50PM 45.8833 -57.2333 263° West 450 518 43,000  Level Moncton Center
03:51PM 45.8667 -57.3000 250° West 450 518 43,000  Level Gander Center
03:51PM 45.8500 -57.4333 260° West 450 518 43,000  Level Moncton Center
03:52PM 45.8000 -57.5833 244° Southwest 450 518 43,000  Level Moncton Center
03:53PM 45.7833 -57.7667 263° West 450 518 43,000  Level Moncton Center
03:54PM 45.7333 -57.9167 245° Southwest 450 518 43,000  Level Moncton Center
03:55PM 45.7167 -58.1167 263° West 440 506 43,000  Level Moncton Center
03:56PM 45.7000 -58.1500 234° Southwest 440 506 43,000  Level Gander Center
03:56PM 45.6667 -58.2667 248° West 440 506 43,000  Level Moncton Center
03:57PM 45.6333 -58.4667 257° West 450 518 43,000  Level Moncton Center
03:58PM 45.6333 -58.5167 270° West 440 506 43,000  Level Gander Center
03:58PM 45.6167 -58.6000 254° West 440 506 43,000  Level Moncton Center
03:59PM 45.5833 -58.7833 255° West 440 506 43,000  Level Moncton Center
04:00PM 45.5500 -58.9500 254° West 450 518 43,000  Level Moncton Center
04:01PM 45.5333 -59.0167 250° West 450 518 43,000  Level Gander Center
04:02PM 45.4833 -59.1833 247° West 450 518 43,000  Level Gander Center
04:02PM 45.4667 -59.2833 257° West 450 518 43,000  Level Moncton Center
04:03PM 45.4333 -59.4667 256° West 440 506 43,000  Level Moncton Center
04:04PM 45.4167 -59.5167 245° Southwest 440 506 43,000  Level Gander Center
04:04PM 45.3833 -59.6333 248° West 440 506 43,000  Level Moncton Center
04:05PM 45.3667 -59.8000 262° West 450 518 43,000  Level Moncton Center
04:06PM 45.3167 -59.9667 247° West 450 518 43,000  Level Moncton Center
04:07PM 45.3167 -60.0333 270° West 450 518 43,000  Level Gander Center
04:07PM 45.3000 -60.1333 257° West 440 506 43,000  Level Moncton Center
04:08PM 45.2500 -60.2833 245° Southwest 440 506 43,000  Level Moncton Center
04:09PM 45.2167 -60.4500 254° West 420 483 43,000  Level Moncton Center
04:10PM 45.2000 -60.5167 250° West 420 483 43,000  Level Gander Center
04:11PM 45.1833 -60.6667 261° West 420 483 43,000  Level Gander Center
04:11PM 45.1500 -60.7667 245° Southwest 420 483 43,000  Level Moncton Center
04:12PM 45.1167 -60.9333 254° West 430 495 43,000  Level Moncton Center
04:13PM 45.1000 -61.0000 251° West 430 495 43,000  Level Gander Center
04:14PM 45.0667 -61.1667 254° West 430 495 43,000  Level Gander Center
04:14PM 45.0500 -61.2500 254° West 430 495 43,000  Level Moncton Center
04:15PM 45.0000 -61.4167 247° West 430 495 43,000  Level Moncton Center
04:16PM 44.9667 -61.5833 254° West 440 506 43,000  Level Moncton Center
04:17PM 44.9167 -61.7500 247° West 430 495 43,000  Level Moncton Center
04:18PM 44.9000 -61.9000 261° West 430 495 43,000  Level Moncton Center
04:19PM 44.8500 -62.0667 247° West 430 495 43,000  Level Moncton Center
04:20PM 44.8167 -62.2333 254° West 430 495 43,000  Level Moncton Center
04:21PM 44.7667 -62.4000 247° West 430 495 43,000  Level Moncton Center
04:22PM 44.7333 -62.5667 254° West 430 495 43,000  Level Moncton Center
04:23PM 44.7000 -62.7000 251° West 430 495 43,000  Level Moncton Center
04:24PM 44.6667 -62.8667 254° West 430 495 43,000  Level Moncton Center
04:25PM 44.6167 -63.0333 247° West 430 495 43,000  Level Moncton Center
04:26PM 44.5833 -63.1833 253° West 420 483 43,000  Level Moncton Center
04:27PM 44.5500 -63.3333 253° West 420 483 43,000  Level Moncton Center
04:28PM 44.5000 -63.4833 245° Southwest 420 483 43,000  Level Moncton Center
04:29PM 44.4667 -63.6500 254° West 420 483 43,000  Level Moncton Center
04:30PM 44.4167 -63.8167 247° West 420 483 43,000  Level Moncton Center
04:31PM 44.3833 -63.9500 251° West 420 483 43,000  Level Moncton Center
04:32PM 44.3333 -64.1167 247° West 420 483 43,000  Level Moncton Center
04:33PM 44.3000 -64.2500 251° West 420 483 43,000  Level Moncton Center
04:34PM 44.2667 -64.4167 254° West 420 483 43,000  Level Moncton Center
04:35PM 44.2167 -64.5667 245° Southwest 420 483 43,000  Level Moncton Center
04:36PM 44.2167 -64.6333 270° West 420 483 43,000  Level Gander Center
04:36PM 44.1833 -64.7167 241° Southwest 420 483 43,000  Level Moncton Center
04:37PM 44.1333 -64.8833 247° West 420 483 43,000  Level Moncton Center
04:38PM 44.1000 -65.0333 253° West 420 483 43,000  Level Moncton Center
04:39PM 44.0667 -65.1667 251° West 420 483 43,000  Level Moncton Center
04:40PM 44.0167 -65.3333 247° West 420 483 43,000  Level Moncton Center
04:41PM 43.9833 -65.4833 253° West 420 483 43,000  Level Moncton Center
04:42PM 43.9333 -65.6333 245° Southwest 420 483 43,000  Level Moncton Center
04:43PM 43.9000 -65.7833 253° West 420 483 43,000  Level Moncton Center
04:44PM 43.8667 -65.9333 253° West 420 483 43,000  Level Moncton Center
04:45PM 43.8000 -66.0833 238° Southwest 430 495 43,000  Level Moncton Center
04:46PM 43.7667 -66.2500 255° West 430 495 43,000  Level Moncton Center
04:47PM 43.7167 -66.4167 248° West 430 495 43,000  Level Moncton Center
04:48PM 43.6833 -66.5500 251° West 430 495 43,000  Level Moncton Center
04:49PM 43.6333 -66.7000 245° Southwest 430 495 43,000  Level Moncton Center
04:50PM 43.5833 -66.8667 248° West 430 495 43,000  Level Moncton Center
04:51PM 43.5500 -67.0333 255° West 430 495 43,000  Level Moncton Center
04:52PM 43.5278 -67.1325 253° West 426 490 43,000  Level Boston Center
04:53PM 43.4844 -67.2822 248° West 426 490 43,000  Level Boston Center
04:54PM 43.4411 -67.4347 249° West 426 490 43,000  Level Boston Center
04:55PM 43.4017 -67.5839 250° West 426 490 43,000 -660 Level Boston Center
04:56PM 43.3558 -67.7333 247° West 421 484 41,700 -1,500 Descending Boston Center
04:57PM 43.3178 -67.8706 249° West 411 473 40,000 -1,740 Descending Boston Center
04:58PM 43.2833 -68.0014 250° West 387 445 38,300 -1,740 Descending Boston Center
04:59PM 43.2425 -68.1356 247° West 381 438 36,600 -1,800 Descending Boston Center
05:00PM 43.2039 -68.2750 249° West 386 444 34,800 -1,800 Descending Boston Center
05:01PM 43.1608 -68.4119 247° West 386 444 33,000 -1,860 Descending Boston Center
05:02PM 43.1178 -68.5542 248° West 398 458 31,100 -1,920 Descending Boston Center
05:03PM 43.0767 -68.6933 248° West 398 458 29,200 -1,980 Descending Boston Center
05:04PM 43.0311 -68.8381 247° West 403 464 27,200 -2,040 Descending Boston Center
05:05PM 42.9917 -68.9711 248° West 398 458 25,200 -2,100 Descending Boston Center
05:06PM 42.9536 -69.0981 248° West 383 441 23,000 -2,220 Descending Boston Center
05:07PM 42.9136 -69.2278 247° West 377 434 20,800 -2,220 Descending Boston Center
05:08PM 42.8733 -69.3575 247° West 377 434 18,600 -2,580 Descending Boston Center
05:09PM 42.8333 -69.4983 249° West 377 434 15,700 -2,460 Descending Boston Center
05:10PM 42.7947 -69.6217 247° West 371 427 13,700 -1,800 Descending Boston Center
05:11PM 42.7581 -69.7422 248° West 366 421 12,100 -1,260 Descending Boston Center
05:12PM 42.7214 -69.8625 247° West 353 406 11,200 -600 Descending Boston Center
05:13PM 42.6822 -69.9828 246° West 348 400 11,000 -120 Descending Boston Center
05:14PM 42.6472 -70.1028 248° West 348 400 11,000  Level Boston Center
05:15PM 42.6100 -70.2228 247° West 348 400 11,000  Level Boston Center
05:16PM 42.5833 -70.3450 254° West 348 400 11,000 -180 Level Boston Center
05:17PM 42.5772 -70.4692 266° West 335 386 10,700 -780 Descending Boston Center
05:18PM 42.6058 -70.5586 294° West 304 350 9,500 -1,680 Descending Boston Center
05:19PM 42.6283 -70.6594 287° West 264 304 7,400 -2,100 Descending Boston Center
05:20PM 42.6256 -70.7500 268° West 247 284 5,400 -1,920 Descending Boston Center
05:21PM 42.6186 -70.8461 264° West 254 292 3,600 -1,560 Descending Boston Center
05:22PM 42.6167 -70.8833 266° West 244 281 3,000 -420 Descending KA90
05:23PM 42.6167 -70.9833 270° West 214 246 3,000 -420 Level KA90
05:24PM 42.6000 -71.0500 251° West 208 239 2,200 -540 Descending KA90
05:25PM 42.5500 -71.0500 180° South 196 226 2,000 -120 Descending KA90
05:26PM 42.5000 -71.0500 180° South 184 212 2,000  Level KA90
05:27PM 42.4667 -71.0833 216° Southwest 163 188 2,000  Level KA90
05:28PM 42.4500 -71.1333 246° West 154 177 2,000 -300 Level KA90
05:29PM 42.4667 -71.1833 294° West 110 127 1,400 -600 Descending KA90
05:30PM 42.4667 -71.2333 270° West 106 122 800 -600 Descending KA90
05:32PM 42.4667 -71.2833 238° Southwest  Level FlightAware Approximate
05:39PM 42.4699 -71.2890 238° Southwest  Level Estimated